createdAt,value
2023-01-30T00:00:15.719Z,15.90
2023-01-30T00:02:42.742Z,15.72
2023-01-30T00:05:09.677Z,15.85
2023-01-30T00:07:36.445Z,15.74
2023-01-30T00:10:03.491Z,15.99
2023-01-30T00:12:30.187Z,15.89
2023-01-30T00:14:56.893Z,15.82
2023-01-30T00:17:25.016Z,15.97
2023-01-30T00:19:51.765Z,15.93
2023-01-30T00:22:18.479Z,15.98
2023-01-30T00:24:45.428Z,15.96
2023-01-30T00:27:12.323Z,16.11
2023-01-30T00:29:39.014Z,16.28
2023-01-30T00:32:06.062Z,16.31
2023-01-30T00:34:34.191Z,16.09
2023-01-30T00:37:08.199Z,15.84
2023-01-30T00:39:35.235Z,15.85
2023-01-30T00:42:01.971Z,16.00
2023-01-30T00:44:28.675Z,15.89
2023-01-30T00:46:55.467Z,15.86
2023-01-30T00:49:22.361Z,15.56
2023-01-30T00:51:50.585Z,14.93
2023-01-30T00:54:17.501Z,15.02
2023-01-30T00:56:44.501Z,15.11
2023-01-30T00:59:11.236Z,15.28
2023-01-30T01:01:38.264Z,15.29
2023-01-30T01:04:05.358Z,15.43
2023-01-30T01:06:32.093Z,15.39
2023-01-30T01:09:00.443Z,15.42
2023-01-30T01:11:27.173Z,15.39
2023-01-30T01:13:55.004Z,15.34
2023-01-30T01:16:22.090Z,15.24
2023-01-30T01:18:49.257Z,15.25
2023-01-30T01:21:16.548Z,15.15
2023-01-30T01:23:44.602Z,15.12
2023-01-30T01:26:12.760Z,15.16
2023-01-30T01:28:39.494Z,15.12
2023-01-30T01:31:10.590Z,15.18
2023-01-30T01:33:37.735Z,15.05
2023-01-30T01:36:05.251Z,15.11
2023-01-30T01:38:32.175Z,15.19
2023-01-30T01:40:59.139Z,14.94
2023-01-30T01:43:28.106Z,14.93
2023-01-30T01:46:00.784Z,15.26
2023-01-30T01:48:31.075Z,15.47
2023-01-30T01:51:01.365Z,15.28
2023-01-30T01:53:32.609Z,15.16
2023-01-30T01:56:02.603Z,15.01
2023-01-30T01:58:35.797Z,14.84
2023-01-30T02:01:02.547Z,15.03
2023-01-30T02:03:32.741Z,14.85
2023-01-30T02:06:02.637Z,14.81
2023-01-30T02:08:33.037Z,14.88
2023-01-30T02:11:05.222Z,14.81
2023-01-30T02:13:34.325Z,14.70
2023-01-30T02:16:03.521Z,14.85
2023-01-30T02:18:32.980Z,15.08
2023-01-30T02:21:24.397Z,15.05
2023-01-30T02:24:20.568Z,14.82
2023-01-30T02:27:15.691Z,15.01
2023-01-30T02:30:28.056Z,15.20
2023-01-30T02:33:08.532Z,15.11
2023-01-30T02:35:44.657Z,14.99
2023-01-30T02:38:24.701Z,14.85
2023-01-30T02:41:02.184Z,14.99
2023-01-30T02:43:35.575Z,14.70
2023-01-30T02:46:08.915Z,14.81
2023-01-30T02:48:42.781Z,14.40
2023-01-30T02:51:16.877Z,14.97
2023-01-30T02:53:43.812Z,14.58
2023-01-30T02:56:10.477Z,14.69
2023-01-30T02:58:43.125Z,14.79
2023-01-30T03:01:43.857Z,14.55
2023-01-30T03:04:30.574Z,14.70
2023-01-30T03:07:16.425Z,15.00
2023-01-30T03:09:52.037Z,14.93
2023-01-30T03:12:34.066Z,15.03
2023-01-30T03:15:05.648Z,14.81
2023-01-30T03:17:33.883Z,14.41
2023-01-30T03:20:02.407Z,14.73
2023-01-30T03:22:29.308Z,14.83
2023-01-30T03:24:56.080Z,14.95
2023-01-30T03:27:22.964Z,14.73
2023-01-30T03:29:49.695Z,14.33
2023-01-30T03:32:16.696Z,14.29
2023-01-30T03:34:43.366Z,14.68
2023-01-30T03:37:11.529Z,14.27
2023-01-30T03:39:38.293Z,14.29
2023-01-30T03:42:05.231Z,14.42
2023-01-30T03:44:31.953Z,14.48
2023-01-30T03:46:58.703Z,14.53
2023-01-30T03:49:25.462Z,14.40
2023-01-30T03:51:52.245Z,14.12
2023-01-30T03:54:20.377Z,14.27
2023-01-30T03:56:47.076Z,14.25
2023-01-30T03:59:13.787Z,14.39
2023-01-30T04:01:40.467Z,14.15
2023-01-30T04:04:07.318Z,14.32
2023-01-30T04:06:35.808Z,14.55
2023-01-30T04:09:03.633Z,14.48
2023-01-30T04:11:31.791Z,14.48
2023-01-30T04:13:58.495Z,14.28
2023-01-30T04:16:26.889Z,14.72
2023-01-30T04:18:53.785Z,14.83
2023-01-30T04:21:21.155Z,14.61
2023-01-30T04:23:47.887Z,14.29
2023-01-30T04:26:15.015Z,14.19
2023-01-30T04:28:43.443Z,14.09
2023-01-30T04:31:10.662Z,14.05
2023-01-30T04:33:37.644Z,14.30
2023-01-30T04:36:05.289Z,14.35
2023-01-30T04:38:33.806Z,14.23
2023-01-30T04:41:01.087Z,14.61
2023-01-30T04:43:29.239Z,14.39
2023-01-30T04:45:58.035Z,14.65
2023-01-30T04:48:25.577Z,14.70
2023-01-30T04:50:54.846Z,14.80
2023-01-30T04:53:22.620Z,14.81
2023-01-30T04:55:49.740Z,14.71
2023-01-30T04:58:17.263Z,14.76
2023-01-30T05:00:43.943Z,14.92
2023-01-30T05:03:12.081Z,14.80
2023-01-30T05:05:38.832Z,14.69
2023-01-30T05:08:05.907Z,14.39
2023-01-30T05:10:32.639Z,14.84
2023-01-30T05:13:02.639Z,15.02
2023-01-30T05:15:29.375Z,15.08
2023-01-30T05:17:56.097Z,15.18
2023-01-30T05:20:24.571Z,14.69
2023-01-30T05:22:51.407Z,14.77
2023-01-30T05:25:18.304Z,14.38
2023-01-30T05:27:45.279Z,13.75
2023-01-30T05:30:12.387Z,14.54
2023-01-30T05:32:39.186Z,14.60
2023-01-30T05:35:07.511Z,14.74
2023-01-30T05:37:35.630Z,14.78
2023-01-30T05:40:02.351Z,15.04
2023-01-30T05:42:29.075Z,14.91
2023-01-30T05:44:55.789Z,15.04
2023-01-30T05:47:22.515Z,15.38
2023-01-30T05:49:49.379Z,15.18
2023-01-30T05:52:16.112Z,15.32
2023-01-30T05:54:44.415Z,15.26
2023-01-30T05:57:11.134Z,15.36
2023-01-30T05:59:37.822Z,15.24
2023-01-30T06:02:04.485Z,15.46
2023-01-30T06:04:31.183Z,15.49
2023-01-30T06:06:57.859Z,15.25
2023-01-30T06:09:24.587Z,15.42
2023-01-30T06:11:53.351Z,14.76
2023-01-30T06:14:20.263Z,15.04
2023-01-30T06:16:47.036Z,15.54
2023-01-30T06:19:13.821Z,15.59
2023-01-30T06:21:40.502Z,15.77
2023-01-30T06:24:07.459Z,15.57
2023-01-30T06:26:34.262Z,15.58
2023-01-30T06:29:02.537Z,15.03
2023-01-30T06:31:29.365Z,15.46
2023-01-30T06:33:56.109Z,15.54
2023-01-30T06:36:22.797Z,15.68
2023-01-30T06:38:49.497Z,15.78
2023-01-30T06:41:16.324Z,15.67
2023-01-30T06:43:42.996Z,15.81
2023-01-30T06:46:11.138Z,15.91
2023-01-30T06:48:37.948Z,15.86
2023-01-30T06:51:04.886Z,15.60
2023-01-30T06:53:31.608Z,15.64
2023-01-30T06:55:59.342Z,15.41
2023-01-30T06:58:26.265Z,15.50
2023-01-30T07:00:53.089Z,15.66
2023-01-30T07:03:21.213Z,15.85
2023-01-30T07:05:48.452Z,15.76
2023-01-30T07:08:16.186Z,15.65
2023-01-30T07:10:44.076Z,15.58
2023-01-30T07:13:10.950Z,15.85
2023-01-30T07:15:37.942Z,15.83
2023-01-30T07:18:04.819Z,15.84
2023-01-30T07:20:32.967Z,15.93
2023-01-30T07:22:59.898Z,15.66
2023-01-30T07:25:27.945Z,15.68
2023-01-30T07:27:56.391Z,15.60
2023-01-30T07:30:23.466Z,15.73
2023-01-30T07:32:51.244Z,15.63
2023-01-30T07:35:18.274Z,15.67
2023-01-30T07:37:47.605Z,15.66
2023-01-30T07:40:15.084Z,15.62
2023-01-30T07:42:42.183Z,15.60
2023-01-30T07:45:09.679Z,15.66
2023-01-30T07:47:36.433Z,15.63
2023-01-30T07:50:03.446Z,15.40
2023-01-30T07:52:30.159Z,15.33
2023-01-30T07:55:01.154Z,15.23
2023-01-30T07:57:28.199Z,15.04
2023-01-30T07:59:55.003Z,14.73
2023-01-30T08:02:21.830Z,14.73
2023-01-30T08:04:48.653Z,14.99
2023-01-30T08:07:15.380Z,14.57
2023-01-30T08:09:42.098Z,14.72
2023-01-30T08:12:10.223Z,14.76
2023-01-30T08:14:36.909Z,14.79
2023-01-30T08:17:03.640Z,14.70
2023-01-30T08:19:30.347Z,14.96
2023-01-30T08:21:59.072Z,15.06
2023-01-30T08:24:25.890Z,14.90
2023-01-30T08:26:52.598Z,15.23
2023-01-30T08:29:20.699Z,15.00
2023-01-30T08:31:47.463Z,15.04
2023-01-30T08:34:14.235Z,15.23
2023-01-30T08:36:40.928Z,15.16
2023-01-30T08:39:07.714Z,15.23
2023-01-30T08:41:34.432Z,15.21
2023-01-30T08:44:01.134Z,15.24
2023-01-30T08:46:29.272Z,15.27
2023-01-30T08:48:56.036Z,15.13
2023-01-30T08:51:22.791Z,15.23
2023-01-30T08:53:49.583Z,15.07
2023-01-30T08:56:17.185Z,15.01
2023-01-30T08:58:43.888Z,14.99
2023-01-30T09:01:10.670Z,15.33
2023-01-30T09:03:38.803Z,15.37
2023-01-30T09:06:06.024Z,15.34
2023-01-30T09:08:33.095Z,15.46
2023-01-30T09:11:00.249Z,15.32
2023-01-30T09:13:26.988Z,15.22
2023-01-30T09:15:54.001Z,15.08
2023-01-30T09:18:20.804Z,15.08
2023-01-30T09:20:48.975Z,15.20
2023-01-30T09:23:16.103Z,15.31
2023-01-30T09:25:45.201Z,15.22
2023-01-30T09:28:12.053Z,15.18
2023-01-30T09:30:38.889Z,15.33
2023-01-30T09:33:05.688Z,15.38
2023-01-30T09:35:32.427Z,15.48
2023-01-30T09:38:00.704Z,15.58
2023-01-30T09:40:29.108Z,15.84
2023-01-30T09:43:17.587Z,16.03
2023-01-30T09:45:53.404Z,16.33
2023-01-30T09:48:29.490Z,16.58
2023-01-30T09:51:11.545Z,16.83
2023-01-30T09:54:01.284Z,17.10
2023-01-30T09:56:28.098Z,17.10
2023-01-30T09:58:57.146Z,17.33
2023-01-30T10:01:32.700Z,17.49
2023-01-30T10:04:09.836Z,17.37
2023-01-30T10:06:43.391Z,17.09
2023-01-30T10:09:18.391Z,17.04
2023-01-30T10:11:59.800Z,16.87
2023-01-30T10:14:52.264Z,16.76
2023-01-30T10:17:32.806Z,16.55
2023-01-30T10:20:16.394Z,16.39
2023-01-30T10:22:57.424Z,16.55
2023-01-30T10:25:32.678Z,16.57
2023-01-30T10:28:06.293Z,16.35
2023-01-30T10:30:34.083Z,16.46
2023-01-30T10:33:06.026Z,16.72
2023-01-30T10:35:36.826Z,17.20
2023-01-30T10:38:14.766Z,17.73
2023-01-30T10:40:48.957Z,17.67
2023-01-30T10:43:22.139Z,17.57
2023-01-30T10:45:55.761Z,17.00
2023-01-30T10:48:45.743Z,16.98
2023-01-30T10:51:24.129Z,17.12
2023-01-30T10:53:55.589Z,17.18
2023-01-30T10:56:33.954Z,17.10
2023-01-30T10:59:10.429Z,17.57
2023-01-30T11:01:44.056Z,17.26
2023-01-30T11:04:19.540Z,17.15
2023-01-30T11:06:47.167Z,17.30
2023-01-30T11:09:14.188Z,17.46
2023-01-30T11:11:49.379Z,17.36
2023-01-30T11:14:16.632Z,17.51
2023-01-30T11:16:46.540Z,17.43
2023-01-30T11:19:21.639Z,17.57
2023-01-30T11:21:50.800Z,17.75
2023-01-30T11:24:19.711Z,17.84
2023-01-30T11:26:48.683Z,17.62
2023-01-30T11:29:24.814Z,17.63
2023-01-30T11:31:52.963Z,17.76
2023-01-30T11:34:22.312Z,17.53
2023-01-30T11:36:50.376Z,17.77
2023-01-30T11:39:23.337Z,17.37
2023-01-30T11:42:10.416Z,17.07
2023-01-30T11:44:40.971Z,17.23
2023-01-30T11:47:13.059Z,17.22
2023-01-30T11:49:50.094Z,17.72
2023-01-30T11:52:20.236Z,17.85
2023-01-30T11:54:47.016Z,18.03
2023-01-30T11:57:17.675Z,18.17
2023-01-30T11:59:47.110Z,18.17
2023-01-30T12:02:20.035Z,18.01
2023-01-30T12:04:50.786Z,17.80
2023-01-30T12:07:22.570Z,17.82
2023-01-30T12:09:50.104Z,17.80
2023-01-30T12:12:44.746Z,17.52
2023-01-30T12:15:21.870Z,17.58
2023-01-30T12:17:59.298Z,17.76
2023-01-30T12:20:46.314Z,17.99
2023-01-30T12:23:18.842Z,18.51
2023-01-30T12:25:56.538Z,18.30
2023-01-30T12:28:32.867Z,18.08
2023-01-30T12:31:06.787Z,17.85
2023-01-30T12:33:34.702Z,17.18
2023-01-30T12:36:11.617Z,17.25
2023-01-30T12:38:55.061Z,17.31
2023-01-30T12:41:37.389Z,17.12
2023-01-30T12:44:33.106Z,17.41
2023-01-30T12:47:24.082Z,17.99
2023-01-30T12:50:05.771Z,18.00
2023-01-30T12:53:02.216Z,18.35
2023-01-30T12:55:39.531Z,18.63
2023-01-30T12:58:14.365Z,18.22
2023-01-30T13:01:03.496Z,18.00
2023-01-30T13:03:37.504Z,17.95
2023-01-30T13:06:19.860Z,17.92
2023-01-30T13:08:59.375Z,17.85
2023-01-30T13:11:45.145Z,17.83
2023-01-30T13:14:22.300Z,18.07
2023-01-30T13:17:05.343Z,18.06
2023-01-30T13:19:41.519Z,17.90
2023-01-30T13:22:15.905Z,17.62
2023-01-30T13:24:53.952Z,17.62
2023-01-30T13:27:23.472Z,17.85
2023-01-30T13:29:55.116Z,18.42
2023-01-30T13:32:34.801Z,18.66
2023-01-30T13:35:06.812Z,18.76
2023-01-30T13:37:34.564Z,18.71
2023-01-30T13:40:04.875Z,18.16
2023-01-30T13:42:38.623Z,18.27
2023-01-30T13:45:07.637Z,18.13
2023-01-30T13:47:46.443Z,18.43
2023-01-30T13:50:28.141Z,18.37
2023-01-30T13:53:03.547Z,18.40
2023-01-30T13:55:39.569Z,18.39
2023-01-30T13:58:15.505Z,18.80
2023-01-30T14:00:52.385Z,19.11
2023-01-30T14:03:29.657Z,19.26
2023-01-30T14:06:11.779Z,19.66
2023-01-30T14:08:50.573Z,19.56
2023-01-30T14:11:29.173Z,19.07
2023-01-30T14:14:02.485Z,18.38
2023-01-30T14:16:44.320Z,18.62
2023-01-30T14:19:33.124Z,18.30
2023-01-30T14:22:02.627Z,17.94
2023-01-30T14:24:32.375Z,17.91
2023-01-30T14:27:01.879Z,17.65
2023-01-30T14:29:51.197Z,17.55
2023-01-30T14:32:37.984Z,17.24
2023-01-30T14:35:22.697Z,17.29
2023-01-30T14:38:10.760Z,17.09
2023-01-30T14:40:45.042Z,17.12
2023-01-30T14:43:35.537Z,16.95
2023-01-30T14:46:06.181Z,16.87
2023-01-30T14:48:40.626Z,16.53
2023-01-30T14:51:21.126Z,16.46
2023-01-30T14:53:56.721Z,16.52
2023-01-30T14:56:39.444Z,16.45
2023-01-30T14:59:18.204Z,16.67
2023-01-30T15:01:54.834Z,16.56
2023-01-30T15:04:22.143Z,16.69
2023-01-30T15:06:50.443Z,17.09
2023-01-30T15:09:17.924Z,17.16
2023-01-30T15:11:54.040Z,17.16
2023-01-30T15:14:28.079Z,17.00
2023-01-30T15:17:04.574Z,17.10
2023-01-30T15:19:57.928Z,16.84
2023-01-30T15:22:35.075Z,16.72
2023-01-30T15:25:25.718Z,16.93
2023-01-30T15:28:05.818Z,17.11
2023-01-30T15:30:47.201Z,16.97
2023-01-30T15:33:22.813Z,17.08
2023-01-30T15:35:53.099Z,17.06
2023-01-30T15:38:27.631Z,16.91
2023-01-30T15:40:56.415Z,16.85
2023-01-30T15:43:42.950Z,16.70
2023-01-30T15:46:17.400Z,16.72
2023-01-30T15:49:07.643Z,16.67
2023-01-30T15:51:34.627Z,16.31
2023-01-30T15:54:08.856Z,16.30
2023-01-30T15:56:35.960Z,16.11
2023-01-30T15:59:03.631Z,16.07
2023-01-30T16:01:31.011Z,15.98
2023-01-30T16:03:57.860Z,15.87
2023-01-30T16:06:29.822Z,15.94
2023-01-30T16:08:58.573Z,16.31
2023-01-30T16:11:35.930Z,16.27
2023-01-30T16:14:02.832Z,16.32
2023-01-30T16:16:32.157Z,16.17
2023-01-30T16:19:01.132Z,16.06
2023-01-30T16:21:32.512Z,16.05
2023-01-30T16:24:04.880Z,15.88
2023-01-30T16:26:35.261Z,15.99
2023-01-30T16:29:05.254Z,15.93
2023-01-30T16:31:33.132Z,15.88
2023-01-30T16:34:00.527Z,15.80
2023-01-30T16:36:32.928Z,15.61
2023-01-30T16:38:59.970Z,15.61
2023-01-30T16:41:32.648Z,15.55
2023-01-30T16:44:17.972Z,15.45
2023-01-30T16:46:50.685Z,15.46
2023-01-30T16:49:22.292Z,15.36
2023-01-30T16:51:49.808Z,15.28
2023-01-30T16:54:21.340Z,15.18
2023-01-30T16:56:51.579Z,15.18
2023-01-30T16:59:29.367Z,15.12
2023-01-30T17:01:56.914Z,14.96
2023-01-30T17:04:27.639Z,15.03
2023-01-30T17:06:56.793Z,15.03
2023-01-30T17:09:50.620Z,15.03
2023-01-30T17:12:37.492Z,15.02
2023-01-30T17:15:31.816Z,14.96
2023-01-30T17:17:59.005Z,14.99
2023-01-30T17:20:32.012Z,15.02
2023-01-30T17:23:05.024Z,15.08
2023-01-30T17:25:34.455Z,15.07
2023-01-30T17:28:02.331Z,15.07
2023-01-30T17:30:31.822Z,15.05
2023-01-30T17:32:59.972Z,15.06
2023-01-30T17:35:26.665Z,15.07
2023-01-30T17:38:04.715Z,15.09
2023-01-30T17:40:34.196Z,15.03
2023-01-30T17:43:01.167Z,14.98
2023-01-30T17:45:28.441Z,14.92
2023-01-30T17:47:55.561Z,14.88
2023-01-30T17:50:23.681Z,14.85
2023-01-30T17:52:50.345Z,14.82
2023-01-30T17:55:17.653Z,14.92
2023-01-30T17:57:47.972Z,15.05
2023-01-30T18:00:17.685Z,15.01
2023-01-30T18:02:44.785Z,14.99
2023-01-30T18:05:11.934Z,14.93
2023-01-30T18:07:40.319Z,14.99
2023-01-30T18:10:08.639Z,15.04
2023-01-30T18:12:35.350Z,14.95
2023-01-30T18:15:02.046Z,14.89
2023-01-30T18:17:28.909Z,14.96
2023-01-30T18:19:56.086Z,14.94
2023-01-30T18:22:22.852Z,14.97
2023-01-30T18:24:50.897Z,14.88
2023-01-30T18:27:17.620Z,14.90
2023-01-30T18:29:44.342Z,14.93
2023-01-30T18:32:11.051Z,14.94
2023-01-30T18:34:37.739Z,14.96
2023-01-30T18:37:04.507Z,15.05
2023-01-30T18:39:31.203Z,14.96
2023-01-30T18:41:59.327Z,14.97
2023-01-30T18:44:26.042Z,14.92
2023-01-30T18:46:52.721Z,14.89
2023-01-30T18:49:19.563Z,14.98
2023-01-30T18:51:46.327Z,14.96
2023-01-30T18:54:13.077Z,14.83
2023-01-30T18:56:39.825Z,14.70
2023-01-30T18:59:07.961Z,14.66
2023-01-30T19:01:37.078Z,14.67
2023-01-30T19:04:05.769Z,14.56
2023-01-30T19:06:35.215Z,14.57
2023-01-30T19:09:01.980Z,14.43
2023-01-30T19:11:28.761Z,14.26
2023-01-30T19:13:56.113Z,14.07
2023-01-30T19:16:27.623Z,13.86
2023-01-30T19:18:55.088Z,13.76
2023-01-30T19:21:22.485Z,13.66
2023-01-30T19:23:49.358Z,13.66
2023-01-30T19:26:17.191Z,13.77
2023-01-30T19:28:44.035Z,14.01
2023-01-30T19:31:12.763Z,13.98
2023-01-30T19:33:41.080Z,13.98
2023-01-30T19:36:08.871Z,13.83
2023-01-30T19:38:35.566Z,13.87
2023-01-30T19:41:02.447Z,13.73
2023-01-30T19:43:29.144Z,13.69
2023-01-30T19:45:58.740Z,13.61
2023-01-30T19:48:26.223Z,13.48
2023-01-30T19:50:54.316Z,13.53
2023-01-30T19:53:21.001Z,13.56
2023-01-30T19:55:51.165Z,13.60
2023-01-30T19:58:18.423Z,13.65
2023-01-30T20:00:45.365Z,13.52
2023-01-30T20:03:12.335Z,13.57
2023-01-30T20:05:39.072Z,13.59
2023-01-30T20:08:07.144Z,13.65
2023-01-30T20:10:33.852Z,13.59
2023-01-30T20:13:00.556Z,13.49
2023-01-30T20:15:27.206Z,13.48
2023-01-30T20:17:53.906Z,13.46
2023-01-30T20:20:20.752Z,13.43
2023-01-30T20:22:47.663Z,13.44
2023-01-30T20:25:18.618Z,13.36
2023-01-30T20:27:45.309Z,13.38
2023-01-30T20:30:15.232Z,13.41
2023-01-30T20:32:42.047Z,13.44
2023-01-30T20:35:09.284Z,13.55
2023-01-30T20:37:38.740Z,13.68
2023-01-30T20:40:06.677Z,13.59
2023-01-30T20:42:34.792Z,13.55
2023-01-30T20:45:01.463Z,13.40
2023-01-30T20:47:28.226Z,13.31
2023-01-30T20:49:54.885Z,13.20
2023-01-30T20:52:21.635Z,13.12
2023-01-30T20:54:48.665Z,13.09
2023-01-30T20:57:15.614Z,13.18
2023-01-30T20:59:43.800Z,13.24
2023-01-30T21:02:10.812Z,13.18
2023-01-30T21:04:37.491Z,13.20
2023-01-30T21:07:04.202Z,13.40
2023-01-30T21:09:30.888Z,13.55
2023-01-30T21:11:57.585Z,13.41
2023-01-30T21:14:26.505Z,13.37
2023-01-30T21:16:54.831Z,13.62
2023-01-30T21:19:21.908Z,13.59
2023-01-30T21:21:51.174Z,13.68
2023-01-30T21:24:20.363Z,13.76
2023-01-30T21:26:47.419Z,13.84
2023-01-30T21:29:16.225Z,13.96
2023-01-30T21:31:43.763Z,13.97
2023-01-30T21:34:12.467Z,13.96
2023-01-30T21:36:39.501Z,13.91
2023-01-30T21:39:06.259Z,13.83
2023-01-30T21:41:35.627Z,13.99
2023-01-30T21:44:02.365Z,14.23
2023-01-30T21:46:31.646Z,14.25
2023-01-30T21:48:58.348Z,14.24
2023-01-30T21:51:26.454Z,14.29
2023-01-30T21:53:53.787Z,14.35
2023-01-30T21:56:20.865Z,14.39
2023-01-30T21:58:47.559Z,14.47
2023-01-30T22:01:15.048Z,14.50
2023-01-30T22:03:41.828Z,14.57
2023-01-30T22:06:09.825Z,14.59
2023-01-30T22:08:38.721Z,14.58
2023-01-30T22:11:07.187Z,14.68
2023-01-30T22:13:34.133Z,14.62
2023-01-30T22:16:01.814Z,14.72
2023-01-30T22:18:28.838Z,14.75
2023-01-30T22:21:01.139Z,14.77
2023-01-30T22:23:31.116Z,14.72
2023-01-30T22:25:59.440Z,14.72
2023-01-30T22:28:26.397Z,14.78
2023-01-30T22:30:53.196Z,14.87
2023-01-30T22:33:20.124Z,14.88
2023-01-30T22:35:49.056Z,14.95
2023-01-30T22:38:15.819Z,14.93
2023-01-30T22:40:42.509Z,14.97
2023-01-30T22:43:10.584Z,14.95
2023-01-30T22:45:37.477Z,14.92
2023-01-30T22:48:04.477Z,14.96
2023-01-30T22:50:31.173Z,15.02
2023-01-30T22:52:57.977Z,14.96
2023-01-30T22:55:24.688Z,14.98
2023-01-30T22:57:51.556Z,15.02
2023-01-30T23:00:20.142Z,15.04
2023-01-30T23:02:46.860Z,15.15
2023-01-30T23:05:13.581Z,15.06
2023-01-30T23:07:40.415Z,15.08
2023-01-30T23:10:09.323Z,15.08
2023-01-30T23:12:36.689Z,15.07
2023-01-30T23:15:04.283Z,15.08
2023-01-30T23:17:32.706Z,15.08
2023-01-30T23:19:59.573Z,15.05
2023-01-30T23:22:26.396Z,15.05
2023-01-30T23:24:53.205Z,15.07
2023-01-30T23:27:20.686Z,15.07
2023-01-30T23:29:47.532Z,15.08
2023-01-30T23:32:14.359Z,15.02
2023-01-30T23:34:42.513Z,15.10
2023-01-30T23:37:09.288Z,15.09
2023-01-30T23:39:36.403Z,15.21
2023-01-30T23:42:03.438Z,15.11
2023-01-30T23:44:30.331Z,15.09
2023-01-30T23:46:57.294Z,15.09
2023-01-30T23:49:24.025Z,15.22
2023-01-30T23:51:52.155Z,15.11
2023-01-30T23:54:18.912Z,15.22
2023-01-30T23:56:45.648Z,15.30
2023-01-30T23:59:12.940Z,15.32
